Time;durP1;ratioP1;P1;durP2;ratioP2;P2;SDS_P1;SDS_P2;PMS_P1;PMS_P2;Temp;Humidity;BMP_temperature;BMP_pressure;BME280_temperature;BME280_humidity;BME280_pressure;Samples;Min_cycle;Max_cycle;Signal;HPM_P1;HPM_P2
2023/05/11 00:01:54;;;;;;;7.18;5.57;;;14.50;44.40;;;;;;4985254;28;118812;-80
2023/05/11 00:04:21;;;;;;;9.40;5.65;;;14.50;44.40;;;;;;4986915;28;114259;-80
2023/05/11 00:06:48;;;;;;;11.05;5.30;;;14.50;44.70;;;;;;4983715;28;114870;-80
2023/05/11 00:09:15;;;;;;;6.80;5.32;;;14.50;44.60;;;;;;5000943;28;114486;-80
2023/05/11 00:11:43;;;;;;;6.90;4.72;;;14.30;45.00;;;;;;4986446;28;114193;-80
2023/05/11 00:14:10;;;;;;;7.97;5.30;;;14.30;44.40;;;;;;5001841;28;114587;-81
2023/05/11 00:16:37;;;;;;;8.57;4.90;;;14.20;44.80;;;;;;4984232;28;115231;-80
2023/05/11 00:19:04;;;;;;;8.00;5.05;;;14.20;44.60;;;;;;4985595;28;114711;-80
2023/05/11 00:21:32;;;;;;;6.32;4.53;;;14.20;44.70;;;;;;4986594;28;114190;-82
2023/05/11 00:23:59;;;;;;;6.88;4.70;;;14.20;44.70;;;;;;4986334;28;114093;-82
2023/05/11 00:26:29;;;;;;;7.00;4.32;;;14.20;44.80;;;;;;4985084;28;114994;-82
2023/05/11 00:28:57;;;;;;;6.93;3.50;;;14.00;43.90;;;;;;4985338;28;114636;-83
2023/05/11 00:31:25;;;;;;;8.13;5.57;;;13.80;43.90;;;;;;4985892;28;115959;-82
2023/05/11 00:33:56;;;;;;;5.90;3.63;;;13.50;45.60;;;;;;5001029;28;115167;-82
2023/05/11 00:36:24;;;;;;;5.80;4.10;;;13.30;45.00;;;;;;4985360;28;114883;-82
2023/05/11 00:38:51;;;;;;;6.35;3.47;;;13.20;45.20;;;;;;4985213;28;114618;-82
2023/05/11 00:41:18;;;;;;;6.22;4.15;;;13.10;45.20;;;;;;4984559;28;114426;-81
2023/05/11 00:43:45;;;;;;;7.57;3.70;;;13.00;45.60;;;;;;4985025;28;114799;-81
2023/05/11 00:46:12;;;;;;;7.05;3.97;;;12.80;45.50;;;;;;4992644;28;115037;-81
2023/05/11 00:48:40;;;;;;;5.78;3.63;;;12.70;45.90;;;;;;5007440;28;114581;-81
2023/05/11 00:51:07;;;;;;;7.07;4.75;;;12.80;45.70;;;;;;4991799;28;114486;-81
2023/05/11 00:53:34;;;;;;;6.35;4.47;;;12.90;47.00;;;;;;4991839;28;116502;-81
2023/05/11 00:56:02;;;;;;;7.35;4.97;;;13.10;46.80;;;;;;5008188;28;114921;-81
2023/05/11 00:58:30;;;;;;;5.47;4.10;;;13.30;46.70;;;;;;5006513;28;114719;-81
2023/05/11 01:00:57;;;;;;;6.25;4.38;;;13.50;45.90;;;;;;4989696;28;115501;-81
2023/05/11 01:03:25;;;;;;;7.13;4.97;;;13.60;45.70;;;;;;4988445;28;114499;-81
2023/05/11 01:06:07;;;;;;;7.70;5.05;;;13.70;46.40;;;;;;4986783;28;115453;-81
2023/05/11 01:08:44;;;;;;;6.18;4.70;;;13.70;46.10;;;;;;4981571;28;115491;-81
2023/05/11 01:11:21;;;;;;;7.70;5.18;;;13.80;46.40;;;;;;4968525;28;114550;-81
2023/05/11 01:13:54;;;;;;;7.63;4.57;;;13.90;46.00;;;;;;4945114;28;115526;-82
2023/05/11 01:16:23;;;;;;;8.52;5.90;;;13.90;46.20;;;;;;4986968;28;115445;-81
2023/05/11 01:19:00;;;;;;;6.87;4.87;;;14.00;46.70;;;;;;4986256;28;114658;-81
2023/05/11 01:21:32;;;;;;;6.82;4.72;;;14.00;45.90;;;;;;4993703;28;114499;-81
2023/05/11 01:24:15;;;;;;;6.60;4.68;;;14.10;45.50;;;;;;4968927;28;114125;-81
2023/05/11 01:27:02;;;;;;;8.17;5.60;;;14.20;45.50;;;;;;4996351;28;117036;-81
2023/05/11 01:30:07;;;;;;;7.43;5.38;;;14.10;45.80;;;;;;4975315;28;115234;-82
2023/05/11 01:32:34;;;;;;;7.30;5.50;;;14.00;46.00;;;;;;5008724;28;116988;-81
2023/05/11 01:35:17;;;;;;;7.60;5.70;;;13.80;46.60;;;;;;4974371;28;114484;-82
2023/05/11 01:37:49;;;;;;;8.05;5.32;;;13.80;47.20;;;;;;5006105;28;120267;-81
2023/05/11 01:40:21;;;;;;;7.45;5.40;;;13.90;47.10;;;;;;5006617;28;114635;-82
2023/05/11 01:42:50;;;;;;;8.20;5.05;;;13.90;47.10;;;;;;4991188;28;114305;-82
2023/05/11 01:45:19;;;;;;;6.90;5.00;;;14.00;46.50;;;;;;5000463;28;114347;-82
2023/05/11 01:47:48;;;;;;;7.60;4.97;;;14.10;47.00;;;;;;4985819;28;115005;-82
2023/05/11 01:50:16;;;;;;;9.30;5.50;;;14.10;46.40;;;;;;4986262;28;115787;-82
2023/05/11 01:52:45;;;;;;;7.20;5.22;;;14.10;46.30;;;;;;4990670;28;114233;-81
2023/05/11 01:55:12;;;;;;;7.93;4.88;;;14.00;46.80;;;;;;4990750;28;114160;-82
2023/05/11 01:57:39;;;;;;;6.43;4.78;;;14.10;46.70;;;;;;4989696;28;115023;-82
2023/05/11 02:00:07;;;;;;;8.07;5.03;;;14.20;46.80;;;;;;4989804;28;114710;-81
2023/05/11 02:02:40;;;;;;;6.22;5.22;;;14.20;47.00;;;;;;5007410;28;114562;-81
2023/05/11 02:05:08;;;;;;;7.28;5.10;;;14.10;46.90;;;;;;4991216;28;114358;-81
2023/05/11 02:07:35;;;;;;;7.28;5.05;;;14.10;46.40;;;;;;5007484;28;114964;-82
2023/05/11 02:10:03;;;;;;;5.88;4.50;;;14.10;46.50;;;;;;4989514;28;114587;-82
2023/05/11 02:12:32;;;;;;;8.32;5.75;;;14.10;46.70;;;;;;4990406;28;114237;-82
2023/05/11 02:15:00;;;;;;;7.55;4.85;;;14.10;47.10;;;;;;4974542;28;114231;-81
2023/05/11 02:17:28;;;;;;;6.45;4.93;;;14.10;46.60;;;;;;4972322;28;116155;-82
2023/05/11 02:19:57;;;;;;;7.18;5.05;;;14.10;47.10;;;;;;4989292;28;115432;-82
2023/05/11 02:22:24;;;;;;;7.05;5.03;;;14.10;47.20;;;;;;5007079;28;114607;-81
2023/05/11 02:24:51;;;;;;;6.32;4.65;;;14.20;46.90;;;;;;5007905;28;114151;-82
2023/05/11 02:27:18;;;;;;;7.90;4.97;;;14.10;47.10;;;;;;5005655;28;117436;-83
2023/05/11 02:29:45;;;;;;;7.10;5.10;;;14.10;46.60;;;;;;5005896;28;115461;-82
2023/05/11 02:32:16;;;;;;;6.95;4.90;;;14.20;47.00;;;;;;4991122;28;114860;-81
2023/05/11 02:34:46;;;;;;;7.65;5.40;;;14.20;47.10;;;;;;5007691;28;114147;-81
2023/05/11 02:37:17;;;;;;;6.18;4.57;;;14.10;47.30;;;;;;4973937;28;115282;-81
2023/05/11 02:39:45;;;;;;;7.75;5.43;;;14.00;47.50;;;;;;4973168;28;115056;-80
2023/05/11 02:42:18;;;;;;;8.05;5.32;;;14.00;47.30;;;;;;4990971;28;114315;-80
2023/05/11 02:45:01;;;;;;;8.18;5.68;;;14.00;47.10;;;;;;4991272;28;114369;-80
2023/05/11 02:47:35;;;;;;;6.95;4.97;;;14.00;46.50;;;;;;4989870;28;114986;-81
2023/05/11 02:50:03;;;;;;;7.93;5.18;;;13.80;47.40;;;;;;4989627;28;114559;-81
2023/05/11 02:52:34;;;;;;;8.38;5.25;;;13.80;47.10;;;;;;4990593;28;114144;-80
2023/05/11 02:55:01;;;;;;;9.00;5.10;;;13.80;47.60;;;;;;4993554;28;117971;-81
2023/05/11 02:57:29;;;;;;;5.60;4.20;;;13.70;47.40;;;;;;4968423;28;114884;-80
2023/05/11 03:00:03;;;;;;;7.82;3.72;;;13.70;46.60;;;;;;4984899;28;114604;-80
2023/05/11 03:02:30;;;;;;;6.70;4.45;;;13.50;45.60;;;;;;5003081;28;114257;-80
2023/05/11 03:04:58;;;;;;;6.22;4.30;;;13.20;46.90;;;;;;4988093;28;114180;-79
2023/05/11 03:07:25;;;;;;;5.07;3.50;;;13.20;46.90;;;;;;4986931;28;117779;-80
2023/05/11 03:09:53;;;;;;;7.28;4.75;;;13.10;46.70;;;;;;4985839;28;114602;-80
2023/05/11 03:12:20;;;;;;;7.57;5.07;;;13.00;48.00;;;;;;4986623;28;115532;-79
2023/05/11 03:14:48;;;;;;;8.50;6.75;;;13.10;48.10;;;;;;4985754;28;114912;-79
2023/05/11 03:17:15;;;;;;;10.80;8.48;;;13.20;48.10;;;;;;5001289;28;115068;-80
2023/05/11 03:19:42;;;;;;;18.13;13.27;;;13.20;48.10;;;;;;4965251;28;114746;-81
2023/05/11 03:22:10;;;;;;;10.30;7.32;;;13.20;47.90;;;;;;4984075;28;114618;-80
2023/05/11 03:24:37;;;;;;;12.18;9.90;;;13.20;48.50;;;;;;4986079;28;114294;-80
2023/05/11 03:27:05;;;;;;;7.95;6.03;;;13.20;48.20;;;;;;4968630;28;115064;-81
2023/05/11 03:29:33;;;;;;;8.75;6.57;;;13.20;48.90;;;;;;4985219;28;114656;-81
2023/05/11 03:32:01;;;;;;;9.57;7.57;;;13.30;48.80;;;;;;5001171;28;114507;-82
2023/05/11 03:34:31;;;;;;;11.60;8.77;;;13.30;48.60;;;;;;5002920;28;114396;-82
2023/05/11 03:36:58;;;;;;;11.65;8.57;;;13.40;48.10;;;;;;4985031;28;115488;-82
2023/05/11 03:39:28;;;;;;;10.88;8.40;;;13.40;47.80;;;;;;4984548;28;114595;-82
2023/05/11 03:41:56;;;;;;;7.97;6.47;;;13.40;48.10;;;;;;4969373;28;114398;-81
2023/05/11 03:44:23;;;;;;;9.50;6.75;;;13.50;48.60;;;;;;4972891;28;114259;-82
2023/05/11 03:46:50;;;;;;;10.43;7.28;;;13.50;48.40;;;;;;4987512;28;114867;-80
2023/05/11 03:49:18;;;;;;;7.88;6.47;;;13.40;48.60;;;;;;4988147;28;115046;-81
2023/05/11 03:51:45;;;;;;;9.55;6.75;;;13.40;48.70;;;;;;4988502;28;114543;-81
2023/05/11 03:54:12;;;;;;;10.20;7.82;;;13.50;48.70;;;;;;4972865;28;114546;-80
2023/05/11 03:56:40;;;;;;;9.88;6.82;;;13.50;48.50;;;;;;5004489;28;114933;-81
2023/05/11 03:59:08;;;;;;;11.48;8.07;;;13.50;48.70;;;;;;4988344;28;114671;-81
2023/05/11 04:01:35;;;;;;;9.02;7.47;;;13.60;48.20;;;;;;4972698;28;118759;-81
2023/05/11 04:04:02;;;;;;;10.73;7.53;;;13.70;48.30;;;;;;5005588;28;114215;-81
2023/05/11 04:06:31;;;;;;;10.30;8.57;;;13.70;48.50;;;;;;5004211;28;116719;-83
2023/05/11 04:09:06;;;;;;;11.68;8.98;;;13.70;48.00;;;;;;5004135;28;114621;-81
2023/05/11 04:11:37;;;;;;;11.15;8.10;;;13.80;48.10;;;;;;5005041;28;114290;-82
2023/05/11 04:14:04;;;;;;;10.52;8.07;;;13.70;48.20;;;;;;5005471;28;114359;-81
2023/05/11 04:16:32;;;;;;;10.30;8.20;;;13.80;48.30;;;;;;4966512;28;114947;-80
2023/05/11 04:19:02;;;;;;;11.52;8.27;;;13.80;48.50;;;;;;4984278;28;114564;-81
2023/05/11 04:21:31;;;;;;;11.57;8.60;;;13.90;48.40;;;;;;5004932;28;114268;-82
2023/05/11 04:23:58;;;;;;;9.10;7.50;;;13.90;47.60;;;;;;4989606;28;114516;-81
2023/05/11 04:26:26;;;;;;;11.18;8.10;;;13.90;48.30;;;;;;4987061;28;114953;-81
2023/05/11 04:28:53;;;;;;;11.00;8.27;;;14.00;48.00;;;;;;5004313;28;115386;-82
2023/05/11 04:31:20;;;;;;;9.23;6.57;;;14.10;47.90;;;;;;4990137;28;117898;-80
2023/05/11 04:33:47;;;;;;;9.18;6.30;;;14.30;47.40;;;;;;4988625;28;114665;-81
2023/05/11 04:36:15;;;;;;;10.00;6.40;;;14.40;46.90;;;;;;4987632;28;115372;-81
2023/05/11 04:38:42;;;;;;;8.68;6.22;;;14.50;47.00;;;;;;4988839;28;114792;-80
2023/05/11 04:41:09;;;;;;;11.50;6.28;;;14.50;46.80;;;;;;4987553;28;114554;-81
2023/05/11 04:43:39;;;;;;;9.70;6.15;;;14.60;46.50;;;;;;4971823;28;114863;-80
2023/05/11 04:46:08;;;;;;;10.18;5.18;;;14.70;46.40;;;;;;4972153;28;114565;-81
2023/05/11 04:48:35;;;;;;;8.45;6.55;;;14.70;45.70;;;;;;5008956;28;114702;-80
2023/05/11 04:51:04;;;;;;;9.35;6.53;;;14.70;46.30;;;;;;5003058;28;114542;-81
2023/05/11 04:53:34;;;;;;;8.13;5.35;;;14.80;46.20;;;;;;4994527;28;114592;-82
2023/05/11 04:56:08;;;;;;;7.07;4.78;;;14.80;45.70;;;;;;4974648;28;116883;-81
2023/05/11 04:58:39;;;;;;;8.07;5.30;;;15.00;45.00;;;;;;4958851;28;115282;-81
2023/05/11 05:01:06;;;;;;;8.25;5.53;;;15.20;45.30;;;;;;5015454;28;114359;-81
2023/05/11 05:03:34;;;;;;;8.48;5.35;;;15.30;44.80;;;;;;4969053;28;114341;-81
2023/05/11 05:06:01;;;;;;;9.30;5.80;;;15.40;44.60;;;;;;4984493;28;115202;-82
2023/05/11 05:08:29;;;;;;;8.82;5.57;;;15.60;44.40;;;;;;4986592;28;114649;-81
2023/05/11 05:10:56;;;;;;;11.60;7.10;;;15.60;44.10;;;;;;4990813;28;117339;-81
2023/05/11 05:13:24;;;;;;;7.90;5.78;;;15.60;44.40;;;;;;4966626;28;114322;-82
2023/05/11 05:15:52;;;;;;;8.07;5.78;;;15.50;44.50;;;;;;4984221;28;114929;-83
2023/05/11 05:18:20;;;;;;;7.28;5.47;;;15.40;44.40;;;;;;4995485;28;115219;-82
2023/05/11 05:20:48;;;;;;;7.57;5.18;;;15.30;44.30;;;;;;5008484;28;114347;-82
2023/05/11 05:23:15;;;;;;;10.10;5.32;;;15.40;44.50;;;;;;4981187;28;114610;-82
2023/05/11 05:25:42;;;;;;;7.68;5.35;;;15.50;44.20;;;;;;4977375;28;115826;-82
2023/05/11 05:28:09;;;;;;;7.80;5.68;;;15.60;43.90;;;;;;4988159;28;117738;-83
2023/05/11 05:30:36;;;;;;;11.32;5.32;;;15.70;44.10;;;;;;4978327;28;115205;-83
2023/05/11 05:33:04;;;;;;;8.05;5.60;;;15.70;44.00;;;;;;4978739;28;114595;-83
2023/05/11 05:35:33;;;;;;;9.02;5.25;;;15.70;44.00;;;;;;4979215;28;118409;-83
2023/05/11 05:38:00;;;;;;;11.18;6.03;;;15.80;44.40;;;;;;4974700;28;115104;-82
2023/05/11 05:40:28;;;;;;;11.13;6.00;;;16.00;43.70;;;;;;4981358;28;114326;-83
2023/05/11 05:42:56;;;;;;;9.65;6.47;;;16.20;43.60;;;;;;4967726;28;114365;-82
2023/05/11 05:45:25;;;;;;;8.88;5.82;;;16.50;43.30;;;;;;4975446;28;114825;-82
2023/05/11 05:47:53;;;;;;;8.20;6.00;;;16.70;43.10;;;;;;4977876;28;115942;-82
2023/05/11 05:50:21;;;;;;;9.60;4.38;;;17.00;42.90;;;;;;4976393;28;114448;-80
2023/05/11 05:52:48;;;;;;;7.07;4.00;;;17.10;41.80;;;;;;4984302;28;114506;-82
2023/05/11 05:55:16;;;;;;;7.45;3.60;;;17.00;40.90;;;;;;4990253;28;115008;-81
2023/05/11 05:57:45;;;;;;;8.90;3.90;;;16.90;40.60;;;;;;5013096;28;114651;-82
2023/05/11 06:00:12;;;;;;;7.13;3.10;;;16.90;40.50;;;;;;5002185;28;114864;-82
2023/05/11 06:02:40;;;;;;;8.57;4.43;;;17.20;40.60;;;;;;4985504;28;115241;-82
2023/05/11 06:05:11;;;;;;;5.57;3.30;;;17.50;40.70;;;;;;4983394;28;114978;-83
2023/05/11 06:07:39;;;;;;;5.70;3.28;;;17.60;40.10;;;;;;4984847;28;117348;-83
2023/05/11 06:10:06;;;;;;;8.25;3.10;;;17.60;40.10;;;;;;4985733;28;114333;-82
2023/05/11 06:12:33;;;;;;;6.55;3.35;;;17.60;39.40;;;;;;4984548;28;114345;-81
2023/05/11 06:15:01;;;;;;;5.65;4.18;;;17.60;39.40;;;;;;5010582;28;115119;-82
2023/05/11 06:17:31;;;;;;;4.40;3.20;;;17.70;39.40;;;;;;5020621;28;115970;-82
2023/05/11 06:20:01;;;;;;;5.55;3.05;;;17.80;38.80;;;;;;5004639;28;114553;-81
2023/05/11 06:22:47;;;;;;;4.97;2.90;;;18.10;39.30;;;;;;4994062;28;114324;-83
2023/05/11 06:25:14;;;;;;;6.05;3.35;;;18.40;38.30;;;;;;4988019;28;115598;-82
2023/05/11 06:27:42;;;;;;;7.78;3.40;;;18.70;37.70;;;;;;4981362;28;116904;-83
2023/05/11 06:30:10;;;;;;;25.33;4.80;;;18.80;37.30;;;;;;4986861;28;114471;-82
2023/05/11 06:32:37;;;;;;;5.25;2.72;;;19.10;37.70;;;;;;4968193;28;114372;-82
2023/05/11 06:35:05;;;;;;;4.80;2.60;;;19.30;36.60;;;;;;4983564;28;114807;-82
2023/05/11 06:37:34;;;;;;;4.20;2.60;;;19.60;35.50;;;;;;4981843;28;114756;-83
2023/05/11 06:40:03;;;;;;;4.10;2.65;;;19.80;35.10;;;;;;4969394;28;114450;-83
2023/05/11 06:42:30;;;;;;;5.05;2.10;;;20.00;34.90;;;;;;4989006;28;114442;-82
2023/05/11 06:45:06;;;;;;;3.20;1.90;;;20.20;33.20;;;;;;4984580;28;114953;-83
2023/05/11 06:47:34;;;;;;;5.15;1.80;;;20.20;31.60;;;;;;4983037;28;115803;-83
2023/05/11 06:50:03;;;;;;;3.30;1.90;;;20.00;31.00;;;;;;5001227;28;114644;-82
2023/05/11 06:52:31;;;;;;;3.50;1.85;;;19.90;31.40;;;;;;4999221;28;114502;-82
2023/05/11 06:55:00;;;;;;;3.83;1.70;;;19.90;31.00;;;;;;4983348;28;115297;-82
2023/05/11 06:57:29;;;;;;;3.17;1.90;;;19.70;31.00;;;;;;4982055;28;116021;-83
2023/05/11 06:59:56;;;;;;;4.88;1.60;;;19.60;31.70;;;;;;4985988;28;114186;-82
2023/05/11 07:02:24;;;;;;;2.70;1.80;;;19.50;31.60;;;;;;4985016;28;114385;-81
2023/05/11 07:04:51;;;;;;;3.40;2.20;;;19.40;31.60;;;;;;5000356;28;115146;-82
2023/05/11 07:07:19;;;;;;;5.70;1.95;;;19.50;31.80;;;;;;5000198;28;116790;-82
2023/05/11 07:09:46;;;;;;;3.10;1.80;;;19.50;31.70;;;;;;4985220;28;114293;-81
2023/05/11 07:12:13;;;;;;;3.28;1.58;;;19.80;31.50;;;;;;4984315;28;114274;-82
2023/05/11 07:14:41;;;;;;;4.18;1.70;;;19.90;30.20;;;;;;5000077;28;115711;-83
2023/05/11 07:17:08;;;;;;;4.55;1.98;;;19.90;30.80;;;;;;5006143;28;114710;-82
2023/05/11 07:19:35;;;;;;;3.47;1.77;;;20.10;31.10;;;;;;4983333;28;114345;-82
2023/05/11 07:22:04;;;;;;;2.95;1.98;;;20.30;30.90;;;;;;4985878;28;114586;-83
2023/05/11 07:24:31;;;;;;;2.95;1.80;;;20.50;30.40;;;;;;4999637;28;115040;-83
2023/05/11 07:26:59;;;;;;;4.78;1.90;;;20.70;29.90;;;;;;4983029;28;116150;-82
2023/05/11 07:29:26;;;;;;;3.00;1.90;;;20.80;29.40;;;;;;4985388;28;114453;-82
2023/05/11 07:31:53;;;;;;;4.00;1.88;;;20.70;29.80;;;;;;4982555;28;115333;-82
2023/05/11 07:34:21;;;;;;;3.67;1.90;;;20.80;28.50;;;;;;4999406;28;114976;-83
2023/05/11 07:36:49;;;;;;;6.30;1.77;;;20.80;28.70;;;;;;4983131;28;117138;-82
2023/05/11 07:39:16;;;;;;;2.92;1.42;;;20.60;29.00;;;;;;4985370;28;114262;-82
2023/05/11 07:41:43;;;;;;;2.42;1.40;;;20.40;29.30;;;;;;4983594;28;114559;-82
2023/05/11 07:44:10;;;;;;;3.70;1.80;;;20.50;28.90;;;;;;4999668;28;115125;-82
2023/05/11 07:46:38;;;;;;;3.63;1.73;;;20.60;28.20;;;;;;4998802;28;115105;-82
2023/05/11 07:49:05;;;;;;;2.70;1.60;;;20.60;29.10;;;;;;4985369;28;114335;-82
2023/05/11 07:51:46;;;;;;;4.65;1.55;;;20.60;28.10;;;;;;5000825;28;114319;-82
2023/05/11 07:54:13;;;;;;;4.93;1.75;;;20.70;28.60;;;;;;4999241;28;114989;-82
2023/05/11 07:56:41;;;;;;;3.72;1.65;;;20.70;28.80;;;;;;4986429;28;115549;-82
2023/05/11 07:59:08;;;;;;;3.25;1.70;;;20.70;28.60;;;;;;4986773;28;114465;-83
2023/05/11 08:01:35;;;;;;;30.02;4.13;;;20.80;28.20;;;;;;4985131;28;114230;-81
2023/05/11 08:04:03;;;;;;;5.40;2.22;;;20.70;28.50;;;;;;4984210;28;114899;-81
2023/05/11 08:06:30;;;;;;;3.75;1.60;;;20.80;28.20;;;;;;4984029;28;114746;-82
2023/05/11 08:08:58;;;;;;;2.72;1.75;;;20.80;27.80;;;;;;4983576;28;114405;-82
2023/05/11 08:11:26;;;;;;;4.38;1.80;;;20.80;28.00;;;;;;4984993;28;114593;-82
2023/05/11 08:13:53;;;;;;;2.92;1.67;;;20.90;27.90;;;;;;4982807;28;114945;-82
2023/05/11 08:16:21;;;;;;;2.97;1.73;;;21.10;27.90;;;;;;4984609;28;114720;-83
2023/05/11 08:18:48;;;;;;;4.00;1.80;;;21.20;27.40;;;;;;4984880;28;116495;-83
2023/05/11 08:21:16;;;;;;;3.40;1.80;;;21.30;27.80;;;;;;4984616;28;114528;-83
2023/05/11 08:23:43;;;;;;;3.70;1.67;;;21.20;27.40;;;;;;4981919;28;115956;-83
2023/05/11 08:26:11;;;;;;;4.43;2.33;;;20.90;27.40;;;;;;4983746;28;114624;-83
2023/05/11 08:28:38;;;;;;;2.75;1.60;;;20.70;27.40;;;;;;5015927;28;114205;-82
2023/05/11 08:31:05;;;;;;;3.08;2.00;;;20.70;27.70;;;;;;4987005;28;114479;-83
2023/05/11 08:33:32;;;;;;;4.63;2.50;;;20.70;28.40;;;;;;5007138;28;115645;-82
2023/05/11 08:36:05;;;;;;;4.82;2.20;;;20.80;29.00;;;;;;5004674;28;114583;-82
2023/05/11 08:38:35;;;;;;;4.13;2.10;;;20.90;28.30;;;;;;5003311;28;114709;-83
2023/05/11 08:41:06;;;;;;;5.72;2.90;;;20.50;28.60;;;;;;5005102;28;114411;-83
2023/05/11 08:43:37;;;;;;;5.25;2.15;;;20.20;29.30;;;;;;4986584;28;117749;-83
2023/05/11 08:46:08;;;;;;;5.00;2.35;;;20.00;29.50;;;;;;5002307;28;114689;-82
2023/05/11 08:48:36;;;;;;;5.57;2.65;;;20.10;30.80;;;;;;5002791;28;114587;-81
2023/05/11 08:51:03;;;;;;;3.70;2.25;;;20.20;29.60;;;;;;4986823;28;114342;-82
2023/05/11 08:53:31;;;;;;;5.93;2.45;;;19.90;29.40;;;;;;5003449;28;115029;-82
2023/05/11 08:56:00;;;;;;;5.85;2.60;;;19.80;30.00;;;;;;5002413;28;114722;-83
2023/05/11 08:58:28;;;;;;;4.07;2.38;;;19.70;30.10;;;;;;4970992;28;114332;-83
2023/05/11 09:00:55;;;;;;;5.55;3.00;;;19.60;30.90;;;;;;4984571;28;116064;-82
2023/05/11 09:03:22;;;;;;;4.32;2.67;;;19.40;31.00;;;;;;4998510;28;115067;-83
2023/05/11 09:05:50;;;;;;;7.75;3.25;;;19.30;30.80;;;;;;4983689;28;114613;-82
2023/05/11 09:08:18;;;;;;;6.00;2.50;;;19.40;31.00;;;;;;4985755;28;114545;-82
2023/05/11 09:10:45;;;;;;;4.65;2.40;;;19.40;31.00;;;;;;5002792;28;114237;-82
2023/05/11 09:13:12;;;;;;;5.53;2.72;;;19.40;31.30;;;;;;4985113;28;114962;-82
2023/05/11 09:15:39;;;;;;;4.97;2.47;;;19.30;31.00;;;;;;4987592;28;114610;-83
2023/05/11 09:18:07;;;;;;;5.10;2.83;;;19.20;31.00;;;;;;5002662;28;114718;-82
2023/05/11 09:20:34;;;;;;;5.05;3.22;;;19.20;31.50;;;;;;4986381;28;114125;-81
2023/05/11 09:23:02;;;;;;;6.47;2.80;;;19.20;31.40;;;;;;4986379;28;114959;-81
2023/05/11 09:25:33;;;;;;;5.10;2.50;;;19.20;31.10;;;;;;5021800;28;114642;-81
2023/05/11 09:28:00;;;;;;;5.97;2.92;;;19.20;30.50;;;;;;4989988;28;115698;-81
2023/05/11 09:30:27;;;;;;;4.90;3.00;;;19.30;30.80;;;;;;5006418;28;114668;-81
2023/05/11 09:32:57;;;;;;;5.05;2.70;;;19.40;31.20;;;;;;5006067;28;115037;-81
2023/05/11 09:35:32;;;;;;;7.40;2.88;;;19.50;31.50;;;;;;5006163;28;114578;-82
2023/05/11 09:38:07;;;;;;;4.10;2.42;;;19.60;31.50;;;;;;5006543;28;118749;-83
2023/05/11 09:40:36;;;;;;;4.68;2.65;;;19.50;31.80;;;;;;4984372;28;114627;-81
2023/05/11 09:43:25;;;;;;;4.80;2.63;;;19.40;31.80;;;;;;4984735;28;118075;-82
2023/05/11 09:45:57;;;;;;;4.43;2.55;;;19.40;31.40;;;;;;5000453;28;116143;-84
2023/05/11 09:48:31;;;;;;;3.88;2.80;;;19.30;31.80;;;;;;5001952;28;114358;-81
2023/05/11 09:51:00;;;;;;;;;;;19.30;32.20;;;;;;4982928;28;114424;-82
2023/05/11 09:53:39;;;;;;;4.72;2.70;;;19.10;32.30;;;;;;4968084;28;115809;-83
2023/05/11 09:56:07;;;;;;;4.40;2.70;;;19.00;32.00;;;;;;5001238;28;114675;-83
2023/05/11 09:58:56;;;;;;;4.72;2.58;;;18.80;32.30;;;;;;5001937;28;114334;-82
2023/05/11 10:01:31;;;;;;;5.80;2.80;;;18.80;31.90;;;;;;4989406;28;114168;-83
2023/05/11 10:04:00;;;;;;;3.85;2.63;;;18.70;31.90;;;;;;5002087;28;115126;-82
2023/05/11 10:06:52;;;;;;;8.32;2.90;;;18.80;31.90;;;;;;4984660;28;115167;-81
2023/05/11 10:09:23;;;;;;;4.47;2.63;;;19.00;32.40;;;;;;4985672;28;114560;-83
2023/05/11 10:11:50;;;;;;;4.72;2.63;;;19.00;32.10;;;;;;4987025;28;114316;-82
2023/05/11 10:14:17;;;;;;;5.13;2.72;;;18.90;32.50;;;;;;4984810;28;114713;-80
2023/05/11 10:16:45;;;;;;;4.07;2.70;;;18.90;32.20;;;;;;4984497;28;116251;-82
2023/05/11 10:19:12;;;;;;;5.72;2.88;;;19.00;32.40;;;;;;5004454;28;114669;-84
2023/05/11 10:21:40;;;;;;;5.38;2.92;;;19.10;32.60;;;;;;5007058;28;114273;-82
2023/05/11 10:24:07;;;;;;;3.95;2.75;;;19.30;31.70;;;;;;4989489;28;114983;-82
2023/05/11 10:26:39;;;;;;;4.95;2.80;;;19.30;31.10;;;;;;4987028;28;117582;-81
2023/05/11 10:29:07;;;;;;;3.80;2.65;;;19.20;31.70;;;;;;4985212;28;116380;-81
2023/05/11 10:31:37;;;;;;;4.85;2.50;;;19.20;31.40;;;;;;5002662;28;114229;-83
2023/05/11 10:34:05;;;;;;;4.40;2.90;;;19.20;31.70;;;;;;5001628;28;114932;-81
2023/05/11 10:36:35;;;;;;;3.88;2.60;;;19.10;31.90;;;;;;5001261;28;114647;-82
2023/05/11 10:39:02;;;;;;;5.93;2.80;;;19.20;32.10;;;;;;4987360;28;114434;-82
2023/05/11 10:41:54;;;;;;;4.72;2.72;;;19.20;32.10;;;;;;5001707;28;114503;-81
2023/05/11 10:44:40;;;;;;;5.45;3.10;;;19.30;32.00;;;;;;4979808;28;115955;-81
2023/05/11 10:47:54;;;;;;;5.40;3.03;;;19.10;32.00;;;;;;4983160;28;115246;-82
2023/05/11 10:51:01;;;;;;;4.55;2.53;;;19.00;32.60;;;;;;4921407;28;114899;-83
2023/05/11 10:54:15;;;;;;;5.10;2.50;;;19.20;32.00;;;;;;5006097;28;114392;-82
2023/05/11 10:57:28;;;;;;;4.80;2.60;;;19.10;31.80;;;;;;4993712;28;115122;-82
2023/05/11 11:00:13;;;;;;;;;;;19.00;31.70;;;;;;5007306;28;114630;-82
2023/05/11 11:02:43;;;;;;;4.20;2.90;;;18.80;32.10;;;;;;4985652;28;115191;-83
2023/05/11 11:05:16;;;;;;;6.20;3.10;;;18.80;31.80;;;;;;5000136;28;114569;-82
2023/05/11 11:08:21;;;;;;;5.50;3.00;;;18.90;31.20;;;;;;4982775;28;116421;-81
2023/05/11 11:10:51;;;;;;;4.03;2.67;;;19.00;31.50;;;;;;4922311;28;114645;-82
2023/05/11 11:13:23;;;;;;;4.40;2.47;;;18.90;31.30;;;;;;4973764;28;114554;-82
2023/05/11 11:15:55;;;;;;;10.55;3.38;;;19.00;30.80;;;;;;4991668;28;114964;-81
2023/05/11 11:18:32;;;;;;;6.82;3.20;;;19.00;31.10;;;;;;5003207;28;115910;-83
2023/05/11 11:21:00;;;;;;;6.18;2.72;;;19.20;31.20;;;;;;4992913;28;114541;-82
2023/05/11 11:23:48;;;;;;;3.97;2.47;;;19.30;30.80;;;;;;4984964;28;114570;-82
2023/05/11 11:26:37;;;;;;;4.43;2.53;;;19.30;30.70;;;;;;4983813;28;114686;-82
2023/05/11 11:29:08;;;;;;;4.53;2.55;;;19.30;30.50;;;;;;4980593;28;116107;-82
2023/05/11 11:31:39;;;;;;;5.03;2.60;;;19.30;29.90;;;;;;4971991;28;114604;-82
2023/05/11 11:34:42;;;;;;;4.60;2.58;;;19.40;29.20;;;;;;4984220;28;114503;-81
2023/05/11 11:37:12;;;;;;;4.60;2.55;;;19.50;29.70;;;;;;4943159;28;114398;-82
2023/05/11 11:39:45;;;;;;;5.10;2.45;;;19.40;29.20;;;;;;4959265;28;114855;-82
2023/05/11 11:42:18;;;;;;;6.25;3.03;;;19.40;28.70;;;;;;4984438;28;116368;-79
2023/05/11 11:44:52;;;;;;;5.53;2.88;;;19.40;28.90;;;;;;4972094;28;114675;-80
2023/05/11 11:47:21;;;;;;;5.47;2.25;;;19.50;28.70;;;;;;4962601;28;114613;-82
2023/05/11 11:49:59;;;;;;;7.38;3.10;;;19.60;29.00;;;;;;4951243;28;116845;-82
2023/05/11 11:52:28;;;;;;;6.30;2.65;;;19.50;28.50;;;;;;4951524;28;115961;-81
2023/05/11 11:55:55;;;;;;;4.55;2.63;;;19.40;29.30;;;;;;4953285;28;114642;-81
2023/05/11 11:58:42;;;;;;;5.27;2.40;;;19.60;29.20;;;;;;4968635;28;114667;-81
2023/05/11 12:01:12;;;;;;;4.40;2.80;;;19.70;29.20;;;;;;4964231;28;120134;-81
2023/05/11 12:03:50;;;;;;;4.40;2.70;;;19.60;29.40;;;;;;4975250;28;115909;-81
2023/05/11 12:06:23;;;;;;;4.90;3.40;;;19.60;29.60;;;;;;4952526;28;116225;-82
2023/05/11 12:08:52;;;;;;;4.57;2.90;;;19.50;29.40;;;;;;4933247;28;114567;-83
2023/05/11 12:11:22;;;;;;;4.95;2.92;;;19.50;29.80;;;;;;4963324;28;114891;-82
2023/05/11 12:13:50;;;;;;;5.57;3.05;;;19.50;29.80;;;;;;4966529;28;114892;-82
2023/05/11 12:16:26;;;;;;;6.55;3.08;;;19.50;29.90;;;;;;4971961;28;114491;-81
2023/05/11 12:18:57;;;;;;;5.95;3.13;;;19.60;30.10;;;;;;5011895;28;114549;-82
2023/05/11 12:21:33;;;;;;;8.45;3.42;;;19.60;30.40;;;;;;5004197;28;114842;-81
2023/05/11 12:24:03;;;;;;;5.47;3.47;;;19.50;30.60;;;;;;4994781;28;115178;-80
2023/05/11 12:26:31;;;;;;;8.48;3.67;;;19.50;31.00;;;;;;4988439;28;117998;-81
2023/05/11 12:29:12;;;;;;;6.80;3.40;;;19.50;31.30;;;;;;4984804;28;114539;-81
2023/05/11 12:31:44;;;;;;;7.75;3.45;;;19.50;31.50;;;;;;4966347;28;116161;-82
2023/05/11 12:34:15;;;;;;;6.00;3.45;;;19.70;31.60;;;;;;4984451;28;114696;-82
2023/05/11 12:36:46;;;;;;;6.28;3.47;;;19.80;31.50;;;;;;4985646;28;114397;-83
2023/05/11 12:39:25;;;;;;;5.88;3.90;;;19.70;31.50;;;;;;4984489;28;114504;-83
2023/05/11 12:41:55;;;;;;;5.13;3.05;;;19.80;31.40;;;;;;4999664;28;115369;-82
2023/05/11 12:44:24;;;;;;;5.47;3.10;;;19.70;31.60;;;;;;5006258;28;116151;-82
2023/05/11 12:46:52;;;;;;;4.78;3.20;;;19.80;31.80;;;;;;4993257;28;114606;-82
2023/05/11 12:49:22;;;;;;;6.53;3.30;;;19.80;31.80;;;;;;4967443;28;114251;-81
2023/05/11 12:51:59;;;;;;;6.10;3.30;;;20.00;31.60;;;;;;4998535;28;117178;-81
2023/05/11 12:54:28;;;;;;;5.15;3.28;;;20.00;31.20;;;;;;4984343;28;114690;-83